Time;durP1;ratioP1;P1;durP2;ratioP2;P2;SDS_P1;SDS_P2;PMS_P1;PMS_P2;Temp;Humidity;BMP_temperature;BMP_pressure;BME280_temperature;BME280_humidity;BME280_pressure;Samples;Min_cycle;Max_cycle;Signal;HPM_P1;HPM_P2
2021/10/14 00:01:41;;;;;;;;;;;15.80;71.80;;;;;;4966486;28;96018;-54
2021/10/14 00:04:14;;;;;;;;;;;15.80;72.00;;;;;;4968575;28;95272;-56
2021/10/14 00:06:45;;;;;;;;;;;15.80;72.00;;;;;;4967419;28;96388;-61
2021/10/14 00:09:16;;;;;;;;;;;15.90;72.40;;;;;;4937411;28;98929;-53
2021/10/14 00:11:46;;;;;;;;;;;15.90;72.70;;;;;;4966320;28;95254;-61
2021/10/14 00:14:16;;;;;;;;;;;15.90;72.80;;;;;;4997620;28;98186;-53
2021/10/14 00:16:47;;;;;;;;;;;16.00;72.90;;;;;;4962071;28;95777;-54
2021/10/14 00:19:18;;;;;;;;;;;16.00;73.10;;;;;;4960890;28;95790;-52
2021/10/14 00:21:47;;;;;;;;;;;16.10;73.10;;;;;;4969803;28;96162;-57
2021/10/14 00:24:16;;;;;;;;;;;16.20;73.10;;;;;;4968196;28;95801;-55
2021/10/14 00:26:46;;;;;;;;;;;16.20;73.10;;;;;;4969289;28;95735;-54
2021/10/14 00:29:15;;;;;;;;;;;16.30;73.10;;;;;;4968396;28;96772;-54
2021/10/14 00:31:44;;;;;;;;;;;16.40;73.00;;;;;;4970971;28;95638;-54
2021/10/14 00:34:15;;;;;;;;;;;16.40;73.00;;;;;;4969733;28;95387;-58
2021/10/14 00:36:45;;;;;;;;;;;16.50;72.90;;;;;;4968916;28;96425;-53
2021/10/14 00:39:15;;;;;;;;;;;16.60;73.00;;;;;;4969148;28;98354;-55
2021/10/14 00:41:45;;;;;;;;;;;16.60;72.80;;;;;;4968524;28;96320;-53
2021/10/14 00:44:14;;;;;;;;;;;16.80;72.70;;;;;;4960909;28;95886;-56
2021/10/14 00:46:54;;;;;;;;;;;16.80;72.70;;;;;;4969535;28;95814;-53
2021/10/14 00:49:26;;;;;;;;;;;16.90;72.70;;;;;;4966536;28;95433;-57
2021/10/14 00:51:58;;;;;;;;;;;17.00;72.40;;;;;;4963571;28;95917;-58
2021/10/14 00:54:28;;;;;;;;;;;17.10;72.50;;;;;;4960122;28;95769;-60
2021/10/14 00:56:59;;;;;;;;;;;17.20;72.30;;;;;;4965235;28;95841;-60
2021/10/14 00:59:30;;;;;;;;;;;17.30;72.10;;;;;;4963325;28;95967;-54
2021/10/14 01:02:00;;;;;;;;;;;17.40;72.00;;;;;;4960191;28;95395;-55
2021/10/14 01:04:32;;;;;;;;;;;17.50;71.90;;;;;;4968967;28;95860;-56
2021/10/14 01:07:03;;;;;;;;;;;17.50;71.80;;;;;;4968458;28;95959;-55
2021/10/14 01:09:33;;;;;;;;;;;17.60;71.80;;;;;;4969313;28;95905;-54
2021/10/14 01:12:04;;;;;;;;;;;17.70;71.70;;;;;;4968726;28;97443;-56
2021/10/14 01:14:35;;;;;;;;;;;17.70;71.50;;;;;;4968613;28;95826;-55
2021/10/14 01:17:06;;;;;;;;;;;17.80;71.40;;;;;;4959653;28;96418;-56
2021/10/14 01:19:40;;;;;;;;;;;17.90;71.40;;;;;;4963637;28;95450;-56
2021/10/14 01:22:10;;;;;;;;;;;18.00;71.40;;;;;;4969790;28;95584;-61
2021/10/14 01:24:40;;;;;;;;;;;18.00;71.00;;;;;;4966846;28;95594;-60
2021/10/14 01:27:09;;;;;;;;;;;18.00;71.10;;;;;;4966818;28;96769;-62
2021/10/14 01:29:39;;;;;;;;;;;18.10;71.00;;;;;;4966578;28;95458;-62
2021/10/14 01:32:08;;;;;;;;;;;18.20;70.90;;;;;;4969143;28;95869;-60
2021/10/14 01:34:38;;;;;;;;;;;18.30;70.70;;;;;;4970123;28;96028;-61
2021/10/14 01:37:08;;;;;;;;;;;18.30;71.40;;;;;;4969536;28;95823;-62
2021/10/14 01:39:38;;;;;;;;;;;18.50;70.80;;;;;;4969154;28;95917;-59
2021/10/14 01:42:11;;;;;;;;;;;18.60;70.50;;;;;;4965512;28;96100;-61
2021/10/14 01:44:43;;;;;;;;;;;18.80;70.10;;;;;;4968582;28;95573;-61
2021/10/14 01:47:13;;;;;;;;;;;19.00;70.00;;;;;;4965708;28;98130;-62
2021/10/14 01:49:44;;;;;;;;;;;19.10;69.80;;;;;;4966069;28;96018;-62
2021/10/14 01:52:15;;;;;;;;;;;19.20;69.50;;;;;;4963759;28;95935;-62
2021/10/14 01:54:44;;;;;;;;;;;19.30;69.40;;;;;;4968021;28;95829;-60
2021/10/14 01:57:14;;;;;;;;;;;19.50;69.30;;;;;;4969977;28;96368;-61
2021/10/14 01:59:44;;;;;;;;;;;19.50;69.10;;;;;;4963145;28;95311;-62
2021/10/14 02:02:13;;;;;;;;;;;19.70;69.00;;;;;;4969046;28;95634;-62
2021/10/14 02:04:45;;;;;;;;;;;19.80;68.70;;;;;;4968264;28;95941;-62
2021/10/14 02:07:15;;;;;;;;;;;19.90;69.30;;;;;;4967365;28;95778;-62
2021/10/14 02:09:46;;;;;;;;;;;19.90;68.40;;;;;;4958725;28;95868;-59
2021/10/14 02:12:16;;;;;;;;;;;20.10;68.20;;;;;;4969201;28;95216;-62
2021/10/14 02:14:46;;;;;;;;;;;20.20;68.00;;;;;;4965295;28;95850;-57
2021/10/14 02:17:16;;;;;;;;;;;20.30;67.90;;;;;;4961172;28;99725;-60
2021/10/14 02:19:46;;;;;;;;;;;20.40;67.70;;;;;;4963618;28;95932;-62
2021/10/14 02:22:16;;;;;;;;;;;20.50;67.60;;;;;;4965614;28;95935;-60
2021/10/14 02:24:46;;;;;;;;;;;20.60;67.50;;;;;;4962113;28;95208;-59
2021/10/14 02:27:16;;;;;;;;;;;20.70;66.20;;;;;;4962202;28;96796;-59
2021/10/14 02:29:46;;;;;;;;;;;20.80;66.90;;;;;;4956189;28;97302;-60
2021/10/14 02:32:16;;;;;;;;;;;20.80;66.80;;;;;;4969525;28;95725;-61
2021/10/14 02:34:45;;;;;;;;;;;20.90;66.60;;;;;;4964940;28;95962;-62
2021/10/14 02:37:17;;;;;;;;;;;21.00;66.70;;;;;;4966679;28;96056;-58
2021/10/14 02:39:48;;;;;;;;;;;21.10;66.60;;;;;;4964336;28;96038;-61
2021/10/14 02:42:18;;;;;;;;;;;21.20;66.40;;;;;;4966324;28;95837;-58
2021/10/14 02:44:47;;;;;;;;;;;21.10;63.80;;;;;;4966611;28;95920;-57
2021/10/14 02:47:17;;;;;;;;;;;21.00;63.80;;;;;;4959459;28;96334;-58
2021/10/14 02:49:47;;;;;;;;;;;20.90;64.10;;;;;;4966884;28;96147;-60
2021/10/14 02:52:18;;;;;;;;;;;20.90;63.80;;;;;;4963496;28;95870;-60
2021/10/14 02:54:49;;;;;;;;;;;20.80;64.10;;;;;;4964141;28;95924;-52
2021/10/14 02:57:19;;;;;;;;;;;20.70;63.70;;;;;;4960823;28;96455;-62
2021/10/14 02:59:50;;;;;;;;;;;20.70;64.00;;;;;;4959617;28;96773;-55
2021/10/14 03:02:21;;;;;;;;;;;20.60;64.10;;;;;;4966488;28;95453;-61
2021/10/14 03:04:52;;;;;;;;;;;20.60;64.20;;;;;;4963554;28;95167;-63
2021/10/14 03:07:26;;;;;;;;;;;20.50;64.50;;;;;;4966673;28;95855;-54
2021/10/14 03:09:57;;;;;;;;;;;20.60;64.20;;;;;;4965552;28;95409;-59
2021/10/14 03:12:27;;;;;;;;;;;20.70;64.40;;;;;;4964509;28;95748;-53
2021/10/14 03:14:58;;;;;;;;;;;20.70;64.30;;;;;;4968678;28;95465;-61
2021/10/14 03:17:29;;;;;;;;;;;20.70;64.20;;;;;;4955871;28;95953;-62
2021/10/14 03:20:04;;;;;;;;;;;20.70;63.80;;;;;;4964196;28;96350;-60
2021/10/14 03:22:33;;;;;;;;;;;20.80;63.70;;;;;;4968197;28;95710;-61
2021/10/14 03:25:03;;;;;;;;;;;20.80;63.30;;;;;;4968294;28;95679;-62
2021/10/14 03:27:32;;;;;;;;;;;20.90;63.20;;;;;;4965362;28;95830;-60
2021/10/14 03:30:02;;;;;;;;;;;20.90;62.60;;;;;;4967346;28;95316;-60
2021/10/14 03:32:32;;;;;;;;;;;20.90;63.10;;;;;;4967032;28;95376;-62
2021/10/14 03:35:03;;;;;;;;;;;20.90;63.30;;;;;;4967011;28;95627;-62
2021/10/14 03:37:39;;;;;;;;;;;20.90;63.90;;;;;;4967104;28;96010;-62
2021/10/14 03:40:09;;;;;;;;;;;21.00;62.20;;;;;;4968611;28;95562;-62
2021/10/14 03:42:39;;;;;;;;;;;21.00;63.30;;;;;;4967409;28;95945;-62
2021/10/14 03:45:11;;;;;;;;;;;21.10;63.50;;;;;;4967631;28;97240;-62
2021/10/14 03:47:41;;;;;;;;;;;21.10;63.20;;;;;;4969103;28;95994;-61
2021/10/14 03:50:12;;;;;;;;;;;21.20;63.60;;;;;;4970253;28;95696;-61
2021/10/14 03:52:43;;;;;;;;;;;21.20;63.40;;;;;;5003700;28;98332;-60
2021/10/14 03:55:12;;;;;;;;;;;21.20;63.60;;;;;;4970899;28;97657;-62
2021/10/14 03:57:42;;;;;;;;;;;21.30;63.50;;;;;;4963408;28;96416;-60
2021/10/14 04:00:13;;;;;;;;;;;21.30;63.60;;;;;;4966759;28;95414;-60
2021/10/14 04:02:43;;;;;;;;;;;21.30;62.90;;;;;;4965771;28;95725;-61
2021/10/14 04:05:15;;;;;;;;;;;21.40;63.30;;;;;;4972704;28;95661;-60
2021/10/14 04:07:46;;;;;;;;;;;21.40;63.00;;;;;;4967032;28;95811;-60
2021/10/14 04:10:17;;;;;;;;;;;21.40;63.00;;;;;;4970247;28;95338;-61
2021/10/14 04:12:47;;;;;;;;;;;21.40;61.50;;;;;;4964951;28;96700;-57
2021/10/14 04:15:18;;;;;;;;;;;21.30;54.30;;;;;;4969205;28;95698;-55
2021/10/14 04:17:48;;;;;;;;;;;20.90;54.90;;;;;;4957576;28;95912;-53
2021/10/14 04:20:19;;;;;;;;;;;20.70;56.30;;;;;;4965267;28;96065;-52
2021/10/14 04:22:50;;;;;;;;;;;20.50;55.00;;;;;;4977481;28;96090;-51
2021/10/14 04:25:20;;;;;;;;;;;20.30;57.20;;;;;;4971270;28;95705;-51
2021/10/14 04:27:50;;;;;;;;;;;20.10;54.40;;;;;;4966143;28;95809;-52
2021/10/14 04:30:19;;;;;;;;;;;20.00;56.70;;;;;;4964456;28;96385;-53
2021/10/14 04:32:50;;;;;;;;;;;19.90;55.70;;;;;;4965569;28;95773;-53
2021/10/14 04:35:22;;;;;;;;;;;19.90;57.20;;;;;;4968448;28;96108;-51
2021/10/14 04:37:53;;;;;;;;;;;19.90;61.50;;;;;;4970960;28;95888;-51
2021/10/14 04:40:23;;;;;;;;;;;19.90;54.00;;;;;;4970219;28;95582;-57
2021/10/14 04:42:53;;;;;;;;;;;19.80;53.30;;;;;;4965223;28;95613;-56
2021/10/14 04:45:23;;;;;;;;;;;19.90;60.10;;;;;;4967245;28;95539;-52
2021/10/14 04:47:53;;;;;;;;;;;19.90;59.30;;;;;;4968127;28;95863;-52
2021/10/14 04:50:23;;;;;;;;;;;19.70;55.20;;;;;;4966846;28;95936;-55
2021/10/14 04:52:53;;;;;;;;;;;19.60;57.20;;;;;;4984969;28;97378;-58
2021/10/14 04:55:23;;;;;;;;;;;19.50;60.10;;;;;;4967266;28;95894;-55
2021/10/14 04:57:54;;;;;;;;;;;19.60;60.90;;;;;;4969471;28;96749;-51
2021/10/14 05:00:25;;;;;;;;;;;19.60;58.20;;;;;;4968934;28;95741;-51
2021/10/14 05:02:56;;;;;;;;;;;19.60;58.10;;;;;;4963418;28;95365;-53
2021/10/14 05:05:28;;;;;;;;;;;19.60;56.50;;;;;;4958690;28;96033;-57
2021/10/14 05:07:59;;;;;;;;;;;19.60;57.20;;;;;;4966310;28;96446;-56
2021/10/14 05:10:31;;;;;;;;;;;19.60;56.20;;;;;;4969428;28;96038;-54
2021/10/14 05:13:02;;;;;;;;;;;19.70;57.60;;;;;;4970259;28;96436;-58
2021/10/14 05:15:33;;;;;;;;;;;19.80;56.40;;;;;;4967440;28;95685;-52
2021/10/14 05:18:04;;;;;;;;;;;19.70;57.40;;;;;;4956423;28;96496;-57
2021/10/14 05:20:35;;;;;;;;;;;19.80;55.80;;;;;;4965852;28;95677;-54
2021/10/14 05:23:05;;;;;;;;;;;19.80;53.90;;;;;;4983660;28;95363;-60
2021/10/14 05:25:35;;;;;;;;;;;19.70;56.90;;;;;;4965715;28;95880;-58
2021/10/14 05:28:05;;;;;;;;;;;19.70;54.10;;;;;;4968492;28;95875;-57
2021/10/14 05:30:35;;;;;;;;;;;19.60;56.80;;;;;;4970211;28;97491;-54
2021/10/14 05:33:05;;;;;;;;;;;19.60;56.60;;;;;;4968722;28;95806;-55
2021/10/14 05:35:37;;;;;;;;;;;19.60;57.10;;;;;;4969467;28;95932;-53
2021/10/14 05:38:08;;;;;;;;;;;19.60;53.80;;;;;;4968708;28;95745;-56
2021/10/14 05:40:39;;;;;;;;;;;19.60;58.00;;;;;;4966630;28;96366;-56
2021/10/14 05:43:08;;;;;;;;;;;19.50;55.70;;;;;;4968491;28;95288;-58
2021/10/14 05:45:38;;;;;;;;;;;19.50;55.80;;;;;;4969465;28;95876;-52
2021/10/14 05:48:08;;;;;;;;;;;19.50;55.30;;;;;;4968234;28;95815;-57
2021/10/14 05:50:40;;;;;;;;;;;19.40;54.70;;;;;;4969903;28;95954;-57
2021/10/14 05:53:10;;;;;;;;;;;19.40;53.70;;;;;;4969402;28;95931;-59
2021/10/14 05:55:41;;;;;;;;;;;19.40;54.20;;;;;;4968927;28;96113;-51
2021/10/14 05:58:12;;;;;;;;;;;19.40;54.40;;;;;;4966176;28;96426;-56
2021/10/14 06:00:42;;;;;;;;;;;19.30;52.90;;;;;;4968706;28;95822;-60
2021/10/14 06:03:12;;;;;;;;;;;19.20;53.20;;;;;;4968519;28;95667;-53
2021/10/14 06:05:43;;;;;;;;;;;19.10;53.50;;;;;;4968341;28;95721;-51
2021/10/14 06:08:14;;;;;;;;;;;19.00;54.10;;;;;;4958278;28;95833;-52
2021/10/14 06:10:44;;;;;;;;;;;18.90;53.60;;;;;;4965117;28;95733;-51
2021/10/14 06:13:15;;;;;;;;;;;18.90;55.80;;;;;;4962410;28;95696;-54
2021/10/14 06:15:46;;;;;;;;;;;18.90;54.10;;;;;;4961975;28;95853;-52
2021/10/14 06:18:21;;;;;;;;;;;18.80;52.40;;;;;;4953816;28;96346;-56
2021/10/14 06:20:51;;;;;;;;;;;18.80;53.80;;;;;;4966101;28;95678;-51
2021/10/14 06:23:25;;;;;;;;;;;18.60;50.50;;;;;;4966618;28;95882;-49
2021/10/14 06:25:55;;;;;;;;;;;18.50;51.90;;;;;;4966161;28;96419;-53
2021/10/14 06:28:25;;;;;;;;;;;18.30;49.00;;;;;;4966680;28;96113;-50
2021/10/14 06:30:59;;;;;;;;;;;18.10;51.10;;;;;;4965262;28;96148;-52
2021/10/14 06:33:30;;;;;;;;;;;18.10;50.60;;;;;;4967613;28;95762;-53
2021/10/14 06:36:02;;;;;;;;;;;18.20;51.30;;;;;;4967902;28;95459;-51
2021/10/14 06:38:33;;;;;;;;;;;18.20;52.50;;;;;;4962100;28;96154;-53
2021/10/14 06:41:03;;;;;;;;;;;18.20;54.10;;;;;;4966104;28;95632;-54
2021/10/14 06:43:32;;;;;;;;;;;18.20;53.10;;;;;;4997694;28;95797;-54
2021/10/14 06:46:02;;;;;;;;;;;18.20;51.50;;;;;;4964134;28;97197;-55
2021/10/14 06:48:33;;;;;;;;;;;18.20;53.10;;;;;;4965005;28;96698;-60
2021/10/14 06:51:03;;;;;;;;;;;18.20;54.30;;;;;;4966832;28;98178;-47
2021/10/14 06:53:34;;;;;;;;;;;18.30;53.50;;;;;;4954059;28;95853;-52
2021/10/14 06:56:05;;;;;;;;;;;18.30;53.40;;;;;;4965594;28;95841;-51
2021/10/14 06:58:43;;;;;;;;;;;18.40;53.30;;;;;;4943622;28;96677;-55
2021/10/14 07:01:15;;;;;;;;;;;18.30;54.50;;;;;;4967531;28;95341;-51
2021/10/14 07:03:50;;;;;;;;;;;18.30;52.70;;;;;;4966811;28;95847;-51
2021/10/14 07:06:22;;;;;;;;;;;18.30;53.90;;;;;;4959401;28;95750;-53
2021/10/14 07:08:52;;;;;;;;;;;18.40;54.00;;;;;;4964583;28;95863;-55
2021/10/14 07:11:28;;;;;;;;;;;18.50;53.90;;;;;;4967441;28;97474;-52
2021/10/14 07:13:58;;;;;;;;;;;18.50;51.40;;;;;;4966262;28;95337;-54
2021/10/14 07:16:29;;;;;;;;;;;18.50;50.70;;;;;;4957866;28;95835;-55
2021/10/14 07:18:59;;;;;;;;;;;18.40;50.50;;;;;;4958125;28;95988;-51
2021/10/14 07:21:40;;;;;;;;;;;18.40;50.60;;;;;;4960093;28;96012;-53
2021/10/14 07:24:10;;;;;;;;;;;18.40;51.00;;;;;;4965178;28;95612;-53
2021/10/14 07:26:40;;;;;;;;;;;18.30;51.30;;;;;;4968208;28;95263;-57
2021/10/14 07:29:11;;;;;;;;;;;18.20;52.00;;;;;;4969661;28;96652;-56
2021/10/14 07:31:40;;;;;;;;;;;18.20;52.30;;;;;;4967483;28;97593;-58
2021/10/14 07:34:09;;;;;;;;;;;18.20;53.00;;;;;;4966933;28;95695;-55
2021/10/14 07:36:43;;;;;;;;;;;18.20;52.40;;;;;;4967759;28;95800;-57
2021/10/14 07:39:14;;;;;;;;;;;18.20;53.80;;;;;;4966745;28;95975;-54
2021/10/14 07:41:46;;;;;;;;;;;18.30;53.90;;;;;;4962423;28;95636;-57
2021/10/14 07:44:17;;;;;;;;;;;18.30;53.90;;;;;;4968096;28;95832;-58
2021/10/14 07:46:47;;;;;;;;;;;18.30;53.60;;;;;;4964652;28;95471;-57
2021/10/14 07:49:19;;;;;;;;;;;18.30;56.10;;;;;;4965648;28;96007;-54
2021/10/14 07:51:51;;;;;;;;;;;18.30;57.90;;;;;;4968753;28;98066;-56
2021/10/14 07:54:22;;;;;;;;;;;18.20;59.20;;;;;;4966251;28;95371;-57
2021/10/14 07:56:51;;;;;;;;;;;18.10;60.10;;;;;;4964748;28;95843;-58
2021/10/14 07:59:22;;;;;;;;;;;18.10;60.50;;;;;;4999421;28;96847;-57
2021/10/14 08:01:52;;;;;;;;;;;18.00;61.20;;;;;;4956373;28;95714;-57
2021/10/14 08:04:23;;;;;;;;;;;17.90;61.80;;;;;;4967980;28;95974;-58
2021/10/14 08:06:54;;;;;;;;;;;17.90;62.00;;;;;;4961235;28;95598;-52
2021/10/14 08:09:25;;;;;;;;;;;17.90;63.30;;;;;;4955984;28;97133;-59
2021/10/14 08:11:56;;;;;;;;;;;17.80;63.40;;;;;;4965736;28;97314;-56
2021/10/14 08:14:28;;;;;;;;;;;17.70;63.80;;;;;;4966626;28;95872;-52
2021/10/14 08:16:59;;;;;;;;;;;17.60;64.80;;;;;;4958701;28;95891;-55
2021/10/14 08:19:29;;;;;;;;;;;17.50;65.00;;;;;;4987435;28;96257;-57
2021/10/14 08:21:59;;;;;;;;;;;17.40;65.10;;;;;;4965728;28;95900;-56
2021/10/14 08:24:28;;;;;;;;;;;17.30;65.50;;;;;;4960468;28;95432;-57
2021/10/14 08:26:58;;;;;;;;;;;17.30;65.70;;;;;;4965075;28;95846;-57
2021/10/14 08:29:30;;;;;;;;;;;17.30;66.00;;;;;;4961425;28;95762;-53
2021/10/14 08:32:02;;;;;;;;;;;17.20;66.10;;;;;;4953149;28;96310;-59
2021/10/14 08:34:32;;;;;;;;;;;17.20;66.10;;;;;;4956212;28;95887;-51
2021/10/14 08:37:03;;;;;;;;;;;17.20;66.60;;;;;;4982001;28;95572;-56
2021/10/14 08:39:35;;;;;;;;;;;17.10;66.40;;;;;;4962569;28;95856;-52
2021/10/14 08:42:06;;;;;;;;;;;17.10;66.60;;;;;;4971696;28;96289;-58
2021/10/14 08:44:36;;;;;;;;;;;17.10;66.80;;;;;;4959310;28;95907;-56
2021/10/14 08:47:06;;;;;;;;;;;17.10;66.80;;;;;;4955825;28;95711;-61
2021/10/14 08:49:38;;;;;;;;;;;17.00;66.90;;;;;;4957941;28;95778;-56
2021/10/14 08:52:09;;;;;;;;;;;17.00;66.30;;;;;;4993291;28;95849;-56
2021/10/14 08:54:38;;;;;;;;;;;17.00;66.60;;;;;;4960401;28;95799;-59
2021/10/14 08:57:09;;;;;;;;;;;16.90;66.50;;;;;;4958304;28;95701;-55
2021/10/14 08:59:40;;;;;;;;;;;16.80;66.60;;;;;;4959861;28;96556;-57
2021/10/14 09:02:13;;;;;;;;;;;16.80;66.60;;;;;;4964253;28;95753;-58
2021/10/14 09:04:57;;;;;;;;;;;16.70;66.80;;;;;;4960761;28;95506;-57
2021/10/14 09:07:31;;;;;;;;;;;16.70;66.90;;;;;;4960898;28;95980;-59
2021/10/14 09:10:11;;;;;;;;;;;16.60;67.20;;;;;;4955300;28;95890;-59
2021/10/14 09:12:42;;;;;;;;;;;16.60;67.30;;;;;;4960126;28;95838;-59
2021/10/14 09:15:14;;;;;;;;;;;16.60;67.50;;;;;;4956747;28;96020;-58
2021/10/14 09:17:48;;;;;;;;;;;16.50;67.60;;;;;;4952669;28;95761;-55
2021/10/14 09:20:22;;;;;;;;;;;16.40;67.60;;;;;;4957223;28;95745;-57
2021/10/14 09:23:00;;;;;;;;;;;16.40;67.70;;;;;;4957095;28;95877;-58
2021/10/14 09:25:32;;;;;;;;;;;16.40;67.80;;;;;;4952047;28;96159;-58
2021/10/14 09:28:07;;;;;;;;;;;16.30;68.00;;;;;;4960192;28;95718;-57
2021/10/14 09:31:02;;;;;;;;;;;16.30;68.10;;;;;;4959045;28;96632;-58
2021/10/14 09:33:36;;;;;;;;;;;16.30;68.10;;;;;;4961281;28;98060;-58
2021/10/14 09:36:22;;;;;;;;;;;16.30;68.00;;;;;;4963491;28;95889;-59
2021/10/14 09:38:57;;;;;;;;;;;16.30;68.00;;;;;;4960566;28;95821;-59
2021/10/14 09:41:27;;;;;;;;;;;16.20;68.00;;;;;;4958310;28;95854;-57
2021/10/14 09:44:05;;;;;;;;;;;16.20;67.90;;;;;;4958835;28;98090;-59
2021/10/14 09:46:44;;;;;;;;;;;16.20;68.10;;;;;;4957955;28;95828;-59
2021/10/14 09:49:18;;;;;;;;;;;16.10;68.20;;;;;;4961867;28;95884;-58
2021/10/14 09:51:48;;;;;;;;;;;16.10;68.10;;;;;;4966114;28;95807;-60
2021/10/14 09:54:17;;;;;;;;;;;16.00;68.40;;;;;;4958371;28;96095;-59
2021/10/14 09:56:46;;;;;;;;;;;16.10;69.10;;;;;;4958759;28;95949;-57
2021/10/14 09:59:17;;;;;;;;;;;16.00;68.30;;;;;;4959980;28;95598;-59
2021/10/14 10:01:49;;;;;;;;;;;15.90;68.50;;;;;;4956051;28;96230;-58
2021/10/14 10:04:27;;;;;;;;;;;15.90;68.70;;;;;;4952903;28;95755;-58
2021/10/14 10:06:59;;;;;;;;;;;15.90;68.80;;;;;;4956772;28;96058;-59
2021/10/14 10:09:38;;;;;;;;;;;15.90;68.50;;;;;;4957025;28;95693;-58
2021/10/14 10:12:09;;;;;;;;;;;15.90;68.30;;;;;;4956131;28;96300;-57
2021/10/14 10:14:40;;;;;;;;;;;15.90;68.10;;;;;;4956705;28;95603;-57
2021/10/14 10:17:14;;;;;;;;;;;15.90;68.10;;;;;;4956314;28;97873;-58
2021/10/14 10:19:52;;;;;;;;;;;15.90;68.00;;;;;;4956848;28;95950;-58
2021/10/14 10:22:34;;;;;;;;;;;15.90;67.70;;;;;;4960604;28;96174;-57
2021/10/14 10:25:34;;;;;;;;;;;15.80;68.00;;;;;;4965914;28;95701;-57
2021/10/14 10:28:06;;;;;;;;;;;15.70;68.40;;;;;;4960791;28;95667;-57
2021/10/14 10:30:55;;;;;;;;;;;15.70;68.60;;;;;;4960360;28;96017;-56
2021/10/14 10:33:57;;;;;;;;;;;15.70;68.50;;;;;;4958629;28;96057;-57
2021/10/14 10:36:45;;;;;;;;;;;15.60;68.40;;;;;;4945510;28;96142;-57
2021/10/14 10:39:35;;;;;;;;;;;15.50;66.80;;;;;;4961747;28;95806;-58
2021/10/14 10:42:18;;;;;;;;;;;15.40;68.70;;;;;;4995862;28;96218;-58
2021/10/14 10:44:48;;;;;;;;;;;15.40;69.20;;;;;;4965166;28;97785;-60
2021/10/14 10:47:36;;;;;;;;;;;15.30;68.90;;;;;;4958655;28;95324;-60
2021/10/14 10:50:10;;;;;;;;;;;15.30;69.90;;;;;;4957659;28;96019;-59
2021/10/14 10:52:44;;;;;;;;;;;15.30;69.20;;;;;;4957972;28;95796;-57
2021/10/14 10:55:15;;;;;;;;;;;15.10;69.20;;;;;;4958000;28;96290;-59
2021/10/14 10:57:51;;;;;;;;;;;15.20;67.70;;;;;;4960927;28;95328;-58
2021/10/14 11:00:23;;;;;;;;;;;15.10;69.40;;;;;;4965094;28;95733;-58
2021/10/14 11:03:14;;;;;;;;;;;15.10;69.40;;;;;;4957941;28;95779;-57
2021/10/14 11:05:52;;;;;;;;;;;15.00;69.50;;;;;;4955968;28;95847;-59
2021/10/14 11:08:25;;;;;;;;;;;15.00;69.40;;;;;;4957438;28;95907;-58
2021/10/14 11:11:18;;;;;;;;;;;14.90;69.50;;;;;;4957564;28;95696;-58
2021/10/14 11:13:50;;;;;;;;;;;14.90;69.90;;;;;;4974413;28;95839;-59
2021/10/14 11:16:25;;;;;;;;;;;14.80;70.20;;;;;;4958260;28;96369;-59
2021/10/14 11:18:56;;;;;;;;;;;14.70;70.50;;;;;;4952558;28;96277;-59
2021/10/14 11:21:43;;;;;;;;;;;14.70;70.80;;;;;;4959122;28;95960;-59
2021/10/14 11:24:17;;;;;;;;;;;14.60;70.60;;;;;;4966165;28;95755;-59
2021/10/14 11:26:47;;;;;;;;;;;14.60;70.20;;;;;;4954909;28;95709;-58
2021/10/14 11:29:18;;;;;;;;;;;14.50;70.10;;;;;;4955450;28;95836;-59
2021/10/14 11:31:53;;;;;;;;;;;14.50;70.40;;;;;;4963878;28;95934;-59
2021/10/14 11:34:25;;;;;;;;;;;14.50;70.60;;;;;;4961886;28;96158;-59
2021/10/14 11:37:05;;;;;;;;;;;14.40;71.00;;;;;;4969963;28;95920;-58
2021/10/14 11:39:36;;;;;;;;;;;14.40;71.10;;;;;;4971095;28;95814;-59
2021/10/14 11:42:09;;;;;;;;;;;14.40;71.20;;;;;;4970063;28;95371;-57
2021/10/14 11:46:02;;;;;;;7.72;5.63;;;14.40;71.10;;;;;;5011285;27;96075;-47
2021/10/14 11:48:36;;;;;;;4.20;3.80;;;14.70;71.50;;;;;;5004899;28;95838;-47
2021/10/14 11:51:09;;;;;;;4.78;3.85;;;15.00;72.50;;;;;;5006619;28;96105;-48
2021/10/14 11:53:59;;;;;;;4.10;3.47;;;15.20;71.20;;;;;;4971611;28;97019;-47
2021/10/14 11:56:30;;;;;;;3.92;2.90;;;15.40;73.10;;;;;;4998337;28;95855;-51
2021/10/14 11:59:04;;;;;;;4.70;3.08;;;15.50;73.30;;;;;;5002439;28;95351;-54
2021/10/14 12:01:53;;;;;;;3.83;2.75;;;15.60;73.10;;;;;;5000826;28;95971;-50
2021/10/14 12:04:30;;;;;;;3.38;2.45;;;15.70;73.00;;;;;;5001624;28;96486;-53
2021/10/14 12:07:01;;;;;;;3.60;2.60;;;15.90;73.10;;;;;;5002140;28;98275;-49
2021/10/14 12:09:47;;;;;;;2.33;2.13;;;16.00;71.10;;;;;;4998315;28;95783;-50
2021/10/14 12:12:29;;;;;;;3.03;2.47;;;16.00;72.80;;;;;;5001083;28;95826;-50
2021/10/14 12:15:17;;;;;;;3.30;2.50;;;16.10;72.70;;;;;;5001035;28;96941;-51
2021/10/14 12:17:49;;;;;;;2.88;2.47;;;16.20;72.50;;;;;;4993301;28;96176;-52
2021/10/14 12:20:23;;;;;;;5.38;2.85;;;16.30;72.50;;;;;;4998802;28;95715;-50
2021/10/14 12:22:57;;;;;;;4.43;4.03;;;16.30;72.00;;;;;;5001014;28;96037;-49
2021/10/14 12:25:39;;;;;;;3.35;2.47;;;16.30;71.70;;;;;;5000877;28;96100;-49
2021/10/14 12:28:21;;;;;;;3.25;2.15;;;16.40;71.40;;;;;;4999923;28;95850;-49
2021/10/14 12:30:51;;;;;;;2.72;2.47;;;16.40;71.10;;;;;;5001446;28;95881;-49
2021/10/14 12:33:21;;;;;;;3.72;2.40;;;16.50;71.00;;;;;;5001774;28;95342;-49
2021/10/14 12:35:53;;;;;;;2.63;2.42;;;16.60;70.70;;;;;;4999830;28;96986;-51
2021/10/14 12:38:41;;;;;;;3.10;2.80;;;16.60;70.40;;;;;;4994867;28;96639;-52
2021/10/14 12:41:15;;;;;;;4.07;3.08;;;16.60;70.20;;;;;;5002146;28;95730;-51
2021/10/14 12:43:57;;;;;;;3.95;3.05;;;16.70;70.20;;;;;;5001633;28;96010;-49
2021/10/14 12:50:00;;;;;;;3.75;2.97;;;16.80;69.70;;;;;;5033529;27;97451;-51
2021/10/14 12:52:30;;;;;;;2.50;2.30;;;16.80;69.40;;;;;;4998805;28;96160;-53
2021/10/14 12:55:05;;;;;;;;;;;16.80;69.90;;;;;;5000967;28;95822;-54
2021/10/14 12:57:36;;;;;;;3.25;2.92;;;16.90;69.20;;;;;;4988724;28;96790;-49
2021/10/14 13:00:09;;;;;;;3.10;2.80;;;16.90;69.10;;;;;;4984907;28;95945;-50
2021/10/14 13:02:48;;;;;;;4.13;2.90;;;16.90;68.90;;;;;;4987308;28;95717;-49
2021/10/14 13:05:19;;;;;;;3.05;2.72;;;16.90;68.80;;;;;;4988674;28;95908;-50
2021/10/14 13:07:50;;;;;;;3.03;2.63;;;16.90;68.80;;;;;;4988702;28;96536;-52
2021/10/14 13:10:21;;;;;;;3.85;2.10;;;17.00;68.80;;;;;;4987522;28;96302;-49
2021/10/14 13:12:53;;;;;;;3.42;2.90;;;17.00;68.70;;;;;;4986648;28;95889;-50
2021/10/14 13:15:24;;;;;;;4.35;2.28;;;17.00;69.20;;;;;;4987560;28;95908;-49
2021/10/14 13:17:57;;;;;;;3.15;2.88;;;17.00;68.50;;;;;;4977246;28;95917;-50
2021/10/14 13:20:29;;;;;;;3.28;2.40;;;17.00;68.30;;;;;;4984366;28;99770;-51
2021/10/14 13:23:01;;;;;;;2.47;2.28;;;17.00;68.10;;;;;;4985210;28;95801;-50
2021/10/14 13:25:31;;;;;;;2.83;2.60;;;17.00;68.10;;;;;;4984584;28;96656;-49
2021/10/14 13:28:01;;;;;;;3.70;2.75;;;17.00;68.00;;;;;;5000676;28;96461;-52
2021/10/14 13:30:31;;;;;;;3.28;2.78;;;17.00;68.00;;;;;;4984542;28;96329;-49
2021/10/14 13:33:03;;;;;;;5.07;3.15;;;17.00;67.90;;;;;;4988962;28;95698;-53
2021/10/14 13:35:34;;;;;;;3.22;2.83;;;17.00;67.90;;;;;;4988307;28;95818;-48
2021/10/14 13:38:06;;;;;;;2.72;2.40;;;17.00;67.90;;;;;;4985248;28;96801;-50
2021/10/14 13:40:40;;;;;;;3.25;2.80;;;17.00;67.80;;;;;;4984976;28;96199;-50
2021/10/14 13:46:03;;;;;;;3.53;2.35;;;17.00;67.70;;;;;;5008837;27;95883;-48
2021/10/14 13:48:35;;;;;;;3.03;2.53;;;17.10;67.70;;;;;;4986870;28;96052;-47
2021/10/14 13:51:06;;;;;;;3.60;2.80;;;17.00;67.60;;;;;;4986798;28;95443;-49
2021/10/14 13:53:36;;;;;;;4.13;3.53;;;17.00;67.50;;;;;;4981520;28;97149;-49
2021/10/14 13:56:09;;;;;;;3.03;2.67;;;17.00;67.50;;;;;;4987839;28;95695;-49
2021/10/14 13:58:40;;;;;;;2.92;2.67;;;17.00;67.50;;;;;;4991931;28;97120;-50
2021/10/14 14:01:11;;;;;;;4.50;3.03;;;17.00;67.40;;;;;;4990268;28;95588;-49
2021/10/14 14:03:58;;;;;;;3.00;2.70;;;17.00;67.40;;;;;;4989921;28;95757;-53
2021/10/14 14:06:29;;;;;;;4.47;2.85;;;17.00;67.40;;;;;;4989471;28;96293;-48
2021/10/14 14:09:01;;;;;;;3.42;3.13;;;16.90;68.00;;;;;;4988789;28;96457;-49
2021/10/14 14:11:33;;;;;;;4.53;3.00;;;16.90;66.00;;;;;;4987304;28;95816;-48
2021/10/14 14:14:05;;;;;;;4.78;3.05;;;16.90;65.70;;;;;;4989624;28;95902;-49
2021/10/14 14:16:37;;;;;;;3.78;3.08;;;16.80;67.50;;;;;;4985011;28;95351;-50
2021/10/14 14:19:09;;;;;;;3.47;3.17;;;16.80;67.50;;;;;;4985963;28;96106;-48
2021/10/14 14:21:40;;;;;;;4.70;3.40;;;16.80;67.30;;;;;;4990964;28;95867;-48
2021/10/14 14:24:11;;;;;;;6.90;3.53;;;16.80;66.50;;;;;;4990811;28;96063;-47
2021/10/14 14:26:41;;;;;;;4.78;2.97;;;16.80;67.60;;;;;;4989995;28;95384;-47
2021/10/14 14:29:11;;;;;;;3.47;3.08;;;16.70;67.80;;;;;;4989053;28;97515;-48
2021/10/14 14:31:41;;;;;;;4.90;3.78;;;16.70;67.70;;;;;;4990440;28;96450;-45
2021/10/14 14:34:12;;;;;;;4.45;3.22;;;16.70;67.70;;;;;;4991473;28;95725;-44
2021/10/14 14:37:09;;;;;;;4.38;3.45;;;16.70;67.70;;;;;;4989540;28;95940;-45